Time;durP1;ratioP1;P1;durP2;ratioP2;P2;SDS_P1;SDS_P2;PMS_P1;PMS_P2;Temp;Humidity;BMP_temperature;BMP_pressure;BME280_temperature;BME280_humidity;BME280_pressure;Samples;Min_cycle;Max_cycle;Signal;HPM_P1;HPM_P2
2021/11/08 00:01:48;;;;;;;6.63;2.70;;;;;;;;;;4584145;27;20030;-57
2021/11/08 00:03:58;;;;;;;5.40;2.10;;;;;;;;;;4587555;27;20024;-57
2021/11/08 00:06:08;;;;;;;6.77;2.53;;;;;;;;;;4590571;27;20036;-57
2021/11/08 00:08:20;;;;;;;6.30;2.30;;;;;;;;;;4591660;27;20061;-57
2021/11/08 00:10:33;;;;;;;6.90;2.47;;;;;;;;;;4589881;27;20109;-57
2021/11/08 00:12:44;;;;;;;7.10;2.63;;;;;;;;;;4587363;27;20078;-57
2021/11/08 00:14:57;;;;;;;8.13;2.73;;;;;;;;;;4589987;27;20058;-57
2021/11/08 00:17:21;;;;;;;5.90;2.08;;;;;;;;;;4588438;27;20028;-57
2021/11/08 00:19:57;;;;;;;7.50;2.50;;;;;;;;;;4590929;27;20031;-57
2021/11/08 00:22:07;;;;;;;7.45;2.25;;;;;;;;;;4584697;27;20032;-57
2021/11/08 00:24:23;;;;;;;5.37;2.10;;;;;;;;;;4589180;27;20590;-57
2021/11/08 00:26:34;;;;;;;6.40;2.17;;;;;;;;;;4589424;27;20016;-57
2021/11/08 00:28:44;;;;;;;5.53;1.97;;;;;;;;;;4592857;27;20032;-56
2021/11/08 00:30:55;;;;;;;6.70;2.40;;;;;;;;;;4586453;27;20131;-56
2021/11/08 00:33:15;;;;;;;4.97;2.10;;;;;;;;;;4596636;27;20029;-56
2021/11/08 00:35:25;;;;;;;5.85;2.05;;;;;;;;;;4591128;27;20103;-56
2021/11/08 00:37:36;;;;;;;7.37;2.53;;;;;;;;;;4589533;27;20395;-56
2021/11/08 00:39:46;;;;;;;6.77;2.03;;;;;;;;;;4587453;27;20028;-57
2021/11/08 00:41:57;;;;;;;4.50;2.30;;;;;;;;;;4586789;27;20375;-57
2021/11/08 00:44:07;;;;;;;6.10;2.10;;;;;;;;;;4576325;27;20084;-56
2021/11/08 00:46:18;;;;;;;4.43;2.10;;;;;;;;;;4585926;27;20035;-56
2021/11/08 00:48:32;;;;;;;4.17;1.90;;;;;;;;;;4603438;27;20031;-56
2021/11/08 00:50:43;;;;;;;5.50;2.00;;;;;;;;;;4587248;27;20066;-57
2021/11/08 00:52:54;;;;;;;4.67;1.70;;;;;;;;;;4586283;27;20790;-55
2021/11/08 00:55:05;;;;;;;6.68;2.22;;;;;;;;;;4587046;27;20031;-58
2021/11/08 00:57:19;;;;;;;4.35;2.15;;;;;;;;;;4586517;27;20073;-56
2021/11/08 00:59:30;;;;;;;6.47;2.15;;;;;;;;;;4585838;27;20165;-56
2021/11/08 01:01:42;;;;;;;5.97;2.43;;;;;;;;;;4586041;27;20024;-56
2021/11/08 01:03:53;;;;;;;8.18;2.72;;;;;;;;;;4589032;27;20078;-56
2021/11/08 01:06:04;;;;;;;5.90;2.40;;;;;;;;;;4587337;27;20111;-56
2021/11/08 01:08:15;;;;;;;7.90;2.58;;;;;;;;;;4589831;27;20627;-56
2021/11/08 01:10:25;;;;;;;8.02;2.67;;;;;;;;;;4588562;27;20074;-56
2021/11/08 01:12:36;;;;;;;5.33;2.10;;;;;;;;;;4586138;27;20139;-57
2021/11/08 01:14:46;;;;;;;5.67;2.50;;;;;;;;;;4583893;27;26729;-56
2021/11/08 01:16:57;;;;;;;8.30;3.00;;;;;;;;;;4582843;27;20032;-56
2021/11/08 01:19:08;;;;;;;5.50;2.38;;;;;;;;;;4589877;27;20093;-57
2021/11/08 01:21:18;;;;;;;7.17;2.90;;;;;;;;;;4585396;27;20036;-58
2021/11/08 01:23:29;;;;;;;6.10;2.50;;;;;;;;;;4585414;27;20503;-57
2021/11/08 01:25:40;;;;;;;7.28;2.97;;;;;;;;;;4583441;27;20969;-57
2021/11/08 01:27:54;;;;;;;7.50;2.73;;;;;;;;;;4584578;27;20038;-57
2021/11/08 01:30:09;;;;;;;5.88;2.40;;;;;;;;;;4586083;27;20039;-58
2021/11/08 01:32:20;;;;;;;6.45;2.38;;;;;;;;;;4586589;27;20016;-57
2021/11/08 01:34:30;;;;;;;5.73;2.40;;;;;;;;;;4588693;27;20023;-57
2021/11/08 01:36:48;;;;;;;6.87;2.63;;;;;;;;;;4590437;27;20034;-56
2021/11/08 01:39:05;;;;;;;5.05;2.20;;;;;;;;;;4590890;27;20475;-56
2021/11/08 01:41:19;;;;;;;7.47;2.40;;;;;;;;;;4588867;27;20092;-57
2021/11/08 01:43:30;;;;;;;5.05;2.47;;;;;;;;;;4590668;27;20020;-57
2021/11/08 01:45:41;;;;;;;6.68;3.05;;;;;;;;;;4588687;27;20589;-56
2021/11/08 01:47:52;;;;;;;6.43;2.57;;;;;;;;;;4588211;27;20071;-57
2021/11/08 01:50:03;;;;;;;6.50;2.60;;;;;;;;;;4584870;27;20024;-57
2021/11/08 01:52:13;;;;;;;6.70;2.80;;;;;;;;;;4587453;27;20069;-57
2021/11/08 01:54:24;;;;;;;6.53;2.30;;;;;;;;;;4588122;27;20032;-57
2021/11/08 01:56:35;;;;;;;7.22;2.40;;;;;;;;;;4587801;27;20530;-57
2021/11/08 01:58:47;;;;;;;6.05;2.42;;;;;;;;;;4587573;27;20023;-57
2021/11/08 02:00:58;;;;;;;5.82;2.30;;;;;;;;;;4588620;27;20119;-57
2021/11/08 02:03:10;;;;;;;6.35;2.45;;;;;;;;;;4585828;27;20024;-57
2021/11/08 02:05:20;;;;;;;6.40;2.50;;;;;;;;;;4583653;27;20641;-57
2021/11/08 02:07:31;;;;;;;6.50;2.30;;;;;;;;;;4590655;27;20024;-57
2021/11/08 02:09:41;;;;;;;5.70;2.40;;;;;;;;;;4591398;27;20024;-57
2021/11/08 02:11:52;;;;;;;7.23;2.50;;;;;;;;;;4590435;27;20423;-57
2021/11/08 02:14:04;;;;;;;6.07;2.37;;;;;;;;;;4589024;27;20221;-57
2021/11/08 02:16:15;;;;;;;7.40;2.30;;;;;;;;;;4588692;27;20020;-57
2021/11/08 02:18:26;;;;;;;;;;;;;;;;;;4590428;27;20034;-57
2021/11/08 02:20:37;;;;;;;3.85;1.95;;;;;;;;;;4587828;27;21308;-57
2021/11/08 02:22:52;;;;;;;6.25;2.45;;;;;;;;;;4587040;27;20411;-57
2021/11/08 02:25:03;;;;;;;7.55;2.83;;;;;;;;;;4586588;27;21006;-57
2021/11/08 02:27:20;;;;;;;6.15;2.50;;;;;;;;;;4587867;27;21692;-57
2021/11/08 02:29:30;;;;;;;6.10;2.53;;;;;;;;;;4592353;27;20028;-57
2021/11/08 02:31:41;;;;;;;7.10;2.50;;;;;;;;;;4585139;27;20540;-57
2021/11/08 02:33:54;;;;;;;6.23;2.47;;;;;;;;;;4588279;27;20031;-57
2021/11/08 02:36:04;;;;;;;5.47;1.98;;;;;;;;;;4590037;27;20835;-57
2021/11/08 02:38:31;;;;;;;5.70;2.10;;;;;;;;;;4595790;27;20034;-56
2021/11/08 02:40:42;;;;;;;5.32;2.22;;;;;;;;;;4600901;27;20118;-57
2021/11/08 02:42:56;;;;;;;5.93;2.30;;;;;;;;;;4591209;27;20081;-57
2021/11/08 02:45:08;;;;;;;5.50;2.17;;;;;;;;;;4593173;27;20023;-57
2021/11/08 02:47:19;;;;;;;7.53;2.67;;;;;;;;;;4587514;27;20024;-57
2021/11/08 02:49:31;;;;;;;7.33;2.93;;;;;;;;;;4582230;27;22780;-57
2021/11/08 02:51:53;;;;;;;7.07;2.80;;;;;;;;;;4593312;27;20043;-57
2021/11/08 02:54:51;;;;;;;7.38;2.75;;;;;;;;;;4590650;27;20027;-57
2021/11/08 02:56:35;;;;;;;5.80;2.47;;;;;;;;;;4579145;27;20048;-57
2021/11/08 02:58:46;;;;;;;6.30;2.67;;;;;;;;;;4590164;27;20028;-57
2021/11/08 03:00:56;;;;;;;;;;;;;;;;;;4589546;27;20035;-57
2021/11/08 03:03:07;;;;;;;5.53;2.50;;;;;;;;;;4604224;27;19915;-57
2021/11/08 03:05:22;;;;;;;5.63;2.50;;;;;;;;;;4590040;27;30656;-57
2021/11/08 03:07:36;;;;;;;7.28;2.42;;;;;;;;;;4587392;27;20586;-57
2021/11/08 03:09:51;;;;;;;7.05;2.38;;;;;;;;;;4576134;27;20032;-57
2021/11/08 03:12:09;;;;;;;7.60;2.75;;;;;;;;;;4587606;27;20607;-57
2021/11/08 03:14:24;;;;;;;6.13;2.30;;;;;;;;;;4585317;27;20028;-57
2021/11/08 03:16:46;;;;;;;6.00;2.38;;;;;;;;;;4588400;27;21074;-57
2021/11/08 03:18:58;;;;;;;5.53;2.40;;;;;;;;;;4589793;27;20027;-57
2021/11/08 03:21:18;;;;;;;5.75;2.67;;;;;;;;;;4586994;27;20879;-57
2021/11/08 03:23:30;;;;;;;6.28;2.40;;;;;;;;;;4591098;27;20024;-58
2021/11/08 03:26:01;;;;;;;6.93;2.53;;;;;;;;;;4588419;27;20627;-57
2021/11/08 03:28:12;;;;;;;6.18;2.40;;;;;;;;;;4568440;27;20037;-57
2021/11/08 03:30:27;;;;;;;6.68;2.28;;;;;;;;;;4592763;27;20051;-57
2021/11/08 03:32:38;;;;;;;6.75;2.50;;;;;;;;;;4585600;27;20032;-57
2021/11/08 03:35:00;;;;;;;5.13;2.23;;;;;;;;;;4588832;27;20032;-57
2021/11/08 03:37:11;;;;;;;6.00;2.42;;;;;;;;;;4585797;27;20024;-57
2021/11/08 03:39:22;;;;;;;5.60;2.30;;;;;;;;;;4586917;27;20496;-57
2021/11/08 03:41:33;;;;;;;5.88;2.50;;;;;;;;;;4585440;27;20028;-57
2021/11/08 03:43:44;;;;;;;5.97;2.22;;;;;;;;;;4586558;27;20026;-57
2021/11/08 03:45:55;;;;;;;5.93;2.30;;;;;;;;;;4585193;27;20376;-57
2021/11/08 03:48:07;;;;;;;7.33;2.80;;;;;;;;;;4589709;27;20020;-57
2021/11/08 03:50:17;;;;;;;7.38;2.60;;;;;;;;;;4589138;27;20054;-57
2021/11/08 03:52:28;;;;;;;6.57;2.57;;;;;;;;;;4592895;27;20044;-57
2021/11/08 03:54:39;;;;;;;6.60;2.58;;;;;;;;;;4585749;27;20036;-57
2021/11/08 03:56:49;;;;;;;6.70;2.63;;;;;;;;;;4586526;27;20028;-57
2021/11/08 03:59:01;;;;;;;4.83;2.27;;;;;;;;;;4587117;27;20027;-57
2021/11/08 04:01:12;;;;;;;6.72;2.65;;;;;;;;;;4587644;27;20027;-57
2021/11/08 04:03:23;;;;;;;6.73;2.90;;;;;;;;;;4589422;27;20024;-57
2021/11/08 04:05:36;;;;;;;6.37;2.47;;;;;;;;;;4587661;27;20465;-57
2021/11/08 04:07:47;;;;;;;5.82;2.50;;;;;;;;;;4588568;27;20032;-57
2021/11/08 04:09:59;;;;;;;6.57;2.40;;;;;;;;;;4586624;27;20586;-57
2021/11/08 04:12:10;;;;;;;5.88;2.50;;;;;;;;;;4588030;27;20126;-57
2021/11/08 04:14:23;;;;;;;6.15;2.47;;;;;;;;;;4574718;27;20795;-57
2021/11/08 04:16:34;;;;;;;6.15;2.40;;;;;;;;;;4576174;27;20024;-57
2021/11/08 04:18:51;;;;;;;7.38;2.67;;;;;;;;;;4588002;27;20170;-58
2021/11/08 04:21:02;;;;;;;8.45;2.70;;;;;;;;;;4587452;27;21626;-57
2021/11/08 04:23:14;;;;;;;;;;;;;;;;;;4585641;27;20032;-57
2021/11/08 04:25:25;;;;;;;6.95;2.72;;;;;;;;;;4586140;27;19968;-57
2021/11/08 04:27:38;;;;;;;5.10;2.45;;;;;;;;;;4578707;27;20020;-58
2021/11/08 04:29:49;;;;;;;7.43;2.58;;;;;;;;;;4587383;27;20136;-57
2021/11/08 04:31:59;;;;;;;4.77;2.27;;;;;;;;;;4587869;27;20164;-57
2021/11/08 04:34:23;;;;;;;6.53;2.70;;;;;;;;;;4584792;27;20101;-57
2021/11/08 04:39:30;;;;;;;7.07;2.80;;;;;;;;;;4589678;27;20020;-57
2021/11/08 04:48:51;;;;;;;7.28;2.60;;;;;;;;;;4582185;27;20020;-57
2021/11/08 04:51:00;;;;;;;6.28;2.70;;;;;;;;;;4586435;27;20047;-57
2021/11/08 04:53:21;;;;;;;7.22;3.08;;;;;;;;;;4587737;27;20023;-57
2021/11/08 05:32:16;;;;;;;6.75;2.72;;;;;;;;;;4599555;27;20032;-57
2021/11/08 05:34:27;;;;;;;5.73;2.60;;;;;;;;;;4587679;27;20020;-57
2021/11/08 05:36:37;;;;;;;7.13;2.77;;;;;;;;;;4594919;27;20023;-57
2021/11/08 05:38:48;;;;;;;8.23;3.83;;;;;;;;;;4583170;27;20102;-56
2021/11/08 05:40:58;;;;;;;12.17;6.97;;;;;;;;;;4585417;27;20035;-57
2021/11/08 05:43:09;;;;;;;8.80;4.17;;;;;;;;;;4584398;27;20028;-56
2021/11/08 05:45:19;;;;;;;9.60;3.87;;;;;;;;;;4583032;27;20541;-57
2021/11/08 05:47:30;;;;;;;7.60;3.07;;;;;;;;;;4584745;27;20024;-58
2021/11/08 05:49:42;;;;;;;8.20;3.73;;;;;;;;;;4591842;27;20625;-57
2021/11/08 05:51:52;;;;;;;7.63;3.45;;;;;;;;;;4586004;27;20035;-56
2021/11/08 05:54:03;;;;;;;10.33;4.50;;;;;;;;;;4586472;27;20606;-57
2021/11/08 06:50:45;;;;;;;7.28;3.88;;;;;;;;;;4587169;27;20043;-58
2021/11/08 06:53:02;;;;;;;8.80;3.60;;;;;;;;;;4589783;27;20024;-58
2021/11/08 06:55:13;;;;;;;5.43;3.35;;;;;;;;;;4586845;27;20559;-58
2021/11/08 06:57:31;;;;;;;7.95;3.40;;;;;;;;;;4574876;27;21326;-59
2021/11/08 06:59:42;;;;;;;6.90;3.33;;;;;;;;;;4588600;27;20643;-58
2021/11/08 07:01:54;;;;;;;7.88;3.08;;;;;;;;;;4591024;27;20080;-58
2021/11/08 07:04:04;;;;;;;8.50;3.30;;;;;;;;;;4592214;27;20077;-59
2021/11/08 07:06:15;;;;;;;8.20;3.57;;;;;;;;;;4587843;27;20031;-59
2021/11/08 07:08:25;;;;;;;11.30;6.97;;;;;;;;;;4590010;27;20092;-58
2021/11/08 07:10:36;;;;;;;18.17;11.30;;;;;;;;;;4586841;27;20044;-57
2021/11/08 07:12:48;;;;;;;17.33;11.48;;;;;;;;;;4589121;27;20031;-57
2021/11/08 07:14:59;;;;;;;9.85;4.80;;;;;;;;;;4589158;27;20028;-57
2021/11/08 07:17:10;;;;;;;7.88;3.80;;;;;;;;;;4589778;27;20040;-57
2021/11/08 07:19:20;;;;;;;9.13;4.40;;;;;;;;;;4589566;27;20032;-57
2021/11/08 07:21:31;;;;;;;6.70;3.93;;;;;;;;;;4588196;27;20496;-58
2021/11/08 07:23:41;;;;;;;7.93;4.00;;;;;;;;;;4587165;27;20043;-57
2021/11/08 07:25:52;;;;;;;6.80;4.00;;;;;;;;;;4590613;27;20035;-57
2021/11/08 07:28:04;;;;;;;7.70;4.00;;;;;;;;;;4586037;27;20409;-57
2021/11/08 07:30:15;;;;;;;9.20;4.70;;;;;;;;;;4586459;27;20039;-57
2021/11/08 07:32:25;;;;;;;7.37;3.83;;;;;;;;;;4586886;27;20035;-57
2021/11/08 07:34:36;;;;;;;9.20;4.13;;;;;;;;;;4586084;27;20030;-57
2021/11/08 07:36:46;;;;;;;9.57;3.73;;;;;;;;;;4587658;27;20036;-57
2021/11/08 07:38:57;;;;;;;8.83;3.87;;;;;;;;;;4590933;27;20036;-57
2021/11/08 07:41:09;;;;;;;8.90;4.00;;;;;;;;;;4587498;27;20096;-57
2021/11/08 07:43:20;;;;;;;7.40;3.83;;;;;;;;;;4591832;27;20035;-57
2021/11/08 07:45:30;;;;;;;9.03;4.37;;;;;;;;;;4587556;27;20035;-57
2021/11/08 07:47:41;;;;;;;8.73;4.50;;;;;;;;;;4591396;27;20457;-57
2021/11/08 07:49:51;;;;;;;9.07;4.60;;;;;;;;;;4587289;27;20024;-57
2021/11/08 07:52:03;;;;;;;8.57;4.30;;;;;;;;;;4586452;27;20047;-57
2021/11/08 07:54:13;;;;;;;;;;;;;;;;;;4587285;27;20051;-57
2021/11/08 07:56:24;;;;;;;7.97;4.38;;;;;;;;;;4586591;27;19922;-57
2021/11/08 07:58:36;;;;;;;7.67;4.20;;;;;;;;;;4586067;27;20036;-57
2021/11/08 08:00:46;;;;;;;8.75;4.30;;;;;;;;;;4585766;27;20036;-57
2021/11/08 08:02:57;;;;;;;8.97;4.60;;;;;;;;;;4585743;27;20843;-58
2021/11/08 08:05:08;;;;;;;9.05;4.28;;;;;;;;;;4588533;27;20594;-59
2021/11/08 08:07:18;;;;;;;7.57;3.80;;;;;;;;;;4589280;27;20047;-58
2021/11/08 08:09:29;;;;;;;8.83;4.00;;;;;;;;;;4585628;27;20051;-58
2021/11/08 08:11:40;;;;;;;8.65;4.10;;;;;;;;;;4589326;27;20074;-59
2021/11/08 08:13:50;;;;;;;8.33;4.30;;;;;;;;;;4590296;27;20034;-58
2021/11/08 08:16:02;;;;;;;10.30;4.30;;;;;;;;;;4586433;27;20027;-59
2021/11/08 08:18:13;;;;;;;8.73;4.03;;;;;;;;;;4586625;27;20567;-60
2021/11/08 08:20:25;;;;;;;9.17;4.30;;;;;;;;;;4586764;27;20028;-58
2021/11/08 08:22:35;;;;;;;9.20;4.20;;;;;;;;;;4588892;27;20766;-58
2021/11/08 08:24:46;;;;;;;6.63;4.00;;;;;;;;;;4585356;27;20042;-58
2021/11/08 08:26:56;;;;;;;9.30;3.93;;;;;;;;;;4584370;27;21944;-58
2021/11/08 08:29:08;;;;;;;9.53;4.43;;;;;;;;;;4586441;27;20546;-57
2021/11/08 08:31:18;;;;;;;9.18;4.13;;;;;;;;;;4579136;27;20042;-57
2021/11/08 08:33:31;;;;;;;9.67;4.30;;;;;;;;;;4585354;27;20031;-57
2021/11/08 08:35:41;;;;;;;8.52;4.10;;;;;;;;;;4569304;27;20096;-58
2021/11/08 08:37:51;;;;;;;9.03;4.13;;;;;;;;;;4585535;27;20158;-57
2021/11/08 08:40:04;;;;;;;8.33;4.10;;;;;;;;;;4587865;27;20055;-57
2021/11/08 08:42:15;;;;;;;10.50;4.72;;;;;;;;;;4584879;27;20008;-57
2021/11/08 08:44:25;;;;;;;8.82;4.45;;;;;;;;;;4586336;27;20024;-57
2021/11/08 08:46:36;;;;;;;10.27;4.50;;;;;;;;;;4583987;27;20028;-57
2021/11/08 08:48:48;;;;;;;7.37;3.97;;;;;;;;;;4586479;27;20027;-57
2021/11/08 08:50:59;;;;;;;9.55;4.07;;;;;;;;;;4584534;27;20134;-57
2021/11/08 08:53:11;;;;;;;8.73;3.90;;;;;;;;;;4588098;27;20752;-57
2021/11/08 08:55:23;;;;;;;9.30;4.13;;;;;;;;;;4587687;27;20024;-57
2021/11/08 08:57:33;;;;;;;8.00;4.13;;;;;;;;;;4582278;27;20020;-58
2021/11/08 08:59:44;;;;;;;8.50;3.63;;;;;;;;;;4585981;27;20020;-56
2021/11/08 09:01:57;;;;;;;9.13;4.18;;;;;;;;;;4585325;27;20023;-56
2021/11/08 09:04:08;;;;;;;6.82;3.60;;;;;;;;;;4586500;27;20036;-56
2021/11/08 09:06:19;;;;;;;7.50;3.70;;;;;;;;;;4584135;27;20008;-56
2021/11/08 09:08:29;;;;;;;9.27;3.67;;;;;;;;;;4586592;27;20044;-56
2021/11/08 09:10:43;;;;;;;8.45;3.60;;;;;;;;;;4584237;27;20043;-56
2021/11/08 09:12:54;;;;;;;8.13;3.55;;;;;;;;;;4583659;27;20020;-56
2021/11/08 09:15:06;;;;;;;8.15;3.70;;;;;;;;;;4585624;27;20387;-57
2021/11/08 09:17:16;;;;;;;7.85;4.07;;;;;;;;;;4585026;27;20081;-56
2021/11/08 09:19:27;;;;;;;7.97;3.90;;;;;;;;;;4584378;27;20580;-56
2021/11/08 09:21:40;;;;;;;9.32;4.10;;;;;;;;;;4586136;27;20020;-56
2021/11/08 09:23:51;;;;;;;9.05;4.32;;;;;;;;;;4581713;27;20034;-56
2021/11/08 09:26:02;;;;;;;8.82;4.82;;;;;;;;;;4584111;27;20020;-56
2021/11/08 09:28:13;;;;;;;8.13;3.90;;;;;;;;;;4585149;27;20023;-57
2021/11/08 09:30:28;;;;;;;9.77;4.07;;;;;;;;;;4584330;27;20040;-57
2021/11/08 09:32:39;;;;;;;9.20;4.07;;;;;;;;;;4588502;27;20024;-57
2021/11/08 09:34:50;;;;;;;9.13;4.43;;;;;;;;;;4586204;27;20024;-57
2021/11/08 09:37:03;;;;;;;9.00;4.05;;;;;;;;;;4583045;27;20028;-57
2021/11/08 09:39:31;;;;;;;9.32;4.00;;;;;;;;;;4584026;27;20029;-57
2021/11/08 09:41:42;;;;;;;9.43;4.10;;;;;;;;;;4600927;27;20031;-56
2021/11/08 09:43:53;;;;;;;9.97;4.03;;;;;;;;;;4590658;27;20421;-57
2021/11/08 09:46:03;;;;;;;8.48;3.70;;;;;;;;;;4583189;27;20028;-57
2021/11/08 09:48:14;;;;;;;9.40;3.80;;;;;;;;;;4583212;27;20031;-57
2021/11/08 09:50:29;;;;;;;8.93;4.40;;;;;;;;;;4583764;27;20020;-57
2021/11/08 09:52:42;;;;;;;9.32;4.22;;;;;;;;;;4584210;27;20814;-57
2021/11/08 09:54:53;;;;;;;8.57;3.85;;;;;;;;;;4586994;27;20032;-57
2021/11/08 09:57:03;;;;;;;7.78;3.63;;;;;;;;;;4590195;27;20016;-57
2021/11/08 09:59:14;;;;;;;8.47;3.57;;;;;;;;;;4566716;27;20181;-57
2021/11/08 10:01:27;;;;;;;7.05;3.08;;;;;;;;;;4586446;27;20020;-57
2021/11/08 10:03:38;;;;;;;8.43;3.40;;;;;;;;;;4587080;27;20030;-56
2021/11/08 10:05:51;;;;;;;9.00;3.60;;;;;;;;;;4589844;27;20035;-59
2021/11/08 10:08:02;;;;;;;9.50;3.50;;;;;;;;;;4588249;27;20031;-58
2021/11/08 10:10:13;;;;;;;7.85;2.92;;;;;;;;;;4588157;27;20035;-57
2021/11/08 10:12:23;;;;;;;6.67;3.07;;;;;;;;;;4590654;27;20066;-57
2021/11/08 10:14:34;;;;;;;8.83;3.20;;;;;;;;;;4588215;27;20017;-57
2021/11/08 10:16:47;;;;;;;7.80;3.13;;;;;;;;;;4587111;27;20105;-57
2021/11/08 10:19:01;;;;;;;7.95;2.88;;;;;;;;;;4589536;27;20028;-57
2021/11/08 10:21:14;;;;;;;8.13;3.15;;;;;;;;;;4590416;27;20028;-56
2021/11/08 10:23:25;;;;;;;8.23;2.88;;;;;;;;;;4565298;27;20609;-57
2021/11/08 10:25:38;;;;;;;7.07;2.80;;;;;;;;;;4587236;27;20035;-57
2021/11/08 10:27:48;;;;;;;8.32;3.15;;;;;;;;;;4586974;27;20582;-57
2021/11/08 10:30:00;;;;;;;7.03;2.90;;;;;;;;;;4585938;27;20024;-57
2021/11/08 10:32:11;;;;;;;6.43;2.50;;;;;;;;;;4586303;27;20040;-57
2021/11/08 10:34:23;;;;;;;8.20;2.70;;;;;;;;;;4593853;27;20028;-57
2021/11/08 10:36:34;;;;;;;5.75;2.35;;;;;;;;;;4587590;27;20024;-56
2021/11/08 10:38:46;;;;;;;8.53;3.07;;;;;;;;;;4592905;27;20032;-56
2021/11/08 10:41:00;;;;;;;7.13;2.63;;;;;;;;;;4585805;27;20039;-57
2021/11/08 10:43:11;;;;;;;6.43;2.40;;;;;;;;;;4584710;27;20027;-57
2021/11/08 10:45:22;;;;;;;7.25;2.38;;;;;;;;;;4586688;27;20590;-57
2021/11/08 10:47:33;;;;;;;6.63;2.97;;;;;;;;;;4586758;27;20056;-57
2021/11/08 10:49:44;;;;;;;6.30;2.40;;;;;;;;;;4593646;27;20032;-57
2021/11/08 10:51:57;;;;;;;6.47;2.50;;;;;;;;;;4587630;27;20043;-57
2021/11/08 10:54:35;;;;;;;5.68;2.38;;;;;;;;;;4586343;27;20111;-57
2021/11/08 10:56:52;;;;;;;6.15;2.63;;;;;;;;;;4581769;27;20044;-57
2021/11/08 10:59:08;;;;;;;5.32;2.33;;;;;;;;;;4582782;27;20107;-57
2021/11/08 11:01:45;;;;;;;7.60;2.63;;;;;;;;;;4586904;27;20036;-57
2021/11/08 11:03:58;;;;;;;9.48;4.32;;;;;;;;;;4582497;27;20592;-57
2021/11/08 11:06:08;;;;;;;8.15;2.63;;;;;;;;;;4585633;27;20028;-57
2021/11/08 11:08:19;;;;;;;5.80;2.00;;;;;;;;;;4585030;27;20020;-57
2021/11/08 11:10:29;;;;;;;7.67;3.20;;;;;;;;;;4586245;27;20122;-56
2021/11/08 11:12:48;;;;;;;7.60;3.57;;;;;;;;;;4590023;27;20263;-56
2021/11/08 11:15:04;;;;;;;9.35;4.10;;;;;;;;;;4583503;27;20046;-57
2021/11/08 11:17:17;;;;;;;12.32;5.93;;;;;;;;;;4586568;27;20023;-56
2021/11/08 11:19:32;;;;;;;8.23;4.13;;;;;;;;;;4574082;27;20026;-57
2021/11/08 11:22:04;;;;;;;4.90;2.47;;;;;;;;;;4588606;27;20030;-56
2021/11/08 11:24:14;;;;;;;;;;;;;;;;;;4563384;27;20079;-56
2021/11/08 11:26:29;;;;;;;9.50;3.80;;;;;;;;;;4585417;27;19994;-56
2021/11/08 11:28:41;;;;;;;8.68;4.72;;;;;;;;;;4586535;27;20229;-57
2021/11/08 11:30:53;;;;;;;6.35;3.00;;;;;;;;;;4587597;27;20301;-57
2021/11/08 11:33:06;;;;;;;6.88;3.28;;;;;;;;;;4581406;27;20032;-57
2021/11/08 11:35:20;;;;;;;11.75;5.60;;;;;;;;;;4581653;27;20117;-57
2021/11/08 11:37:31;;;;;;;6.95;2.92;;;;;;;;;;4585812;27;20032;-57
2021/11/08 11:39:42;;;;;;;6.40;2.50;;;;;;;;;;4585469;27;20027;-56
2021/11/08 11:41:59;;;;;;;4.72;2.53;;;;;;;;;;4585292;27;21256;-56
2021/11/08 11:44:28;;;;;;;5.80;2.22;;;;;;;;;;4587192;27;20034;-57
2021/11/08 11:46:42;;;;;;;6.22;2.20;;;;;;;;;;4584805;27;20247;-57
2021/11/08 11:48:54;;;;;;;4.95;1.85;;;;;;;;;;4553856;27;20033;-56
2021/11/08 11:51:05;;;;;;;;;;;;;;;;;;4585862;27;20036;-56
2021/11/08 11:53:16;;;;;;;6.03;1.95;;;;;;;;;;4600858;27;21590;-56
2021/11/08 11:55:28;;;;;;;6.68;2.60;;;;;;;;;;4585880;27;20044;-56
2021/11/08 11:57:39;;;;;;;5.57;2.13;;;;;;;;;;4572400;27;20119;-56
2021/11/08 11:59:51;;;;;;;5.50;2.50;;;;;;;;;;4586544;27;20738;-56
2021/11/08 12:02:02;;;;;;;7.18;3.00;;;;;;;;;;4584612;27;20023;-57
2021/11/08 12:04:13;;;;;;;5.57;2.20;;;;;;;;;;4587894;27;20016;-56
2021/11/08 12:06:27;;;;;;;8.30;3.15;;;;;;;;;;4591042;27;20031;-57
2021/11/08 12:08:38;;;;;;;8.02;2.50;;;;;;;;;;4585533;27;20024;-56
2021/11/08 12:10:53;;;;;;;;;;;;;;;;;;4586237;27;20475;-57
2021/11/08 12:13:16;;;;;;;7.68;2.33;;;;;;;;;;4586386;27;20508;-57
2021/11/08 12:15:29;;;;;;;6.22;2.13;;;;;;;;;;4584448;27;20032;-57
2021/11/08 12:17:42;;;;;;;5.03;1.98;;;;;;;;;;4586887;27;20108;-57
2021/11/08 12:20:04;;;;;;;5.45;1.98;;;;;;;;;;4586802;27;20038;-57
2021/11/08 12:22:16;;;;;;;6.35;1.90;;;;;;;;;;4572628;27;20027;-57
2021/11/08 12:24:31;;;;;;;7.82;2.40;;;;;;;;;;4586821;27;20077;-58
2021/11/08 12:26:41;;;;;;;4.93;1.70;;;;;;;;;;4589252;27;20162;-58
2021/11/08 12:29:05;;;;;;;6.87;2.20;;;;;;;;;;4587765;27;20103;-58
2021/11/08 12:31:21;;;;;;;6.20;2.20;;;;;;;;;;4583501;27;20562;-58
2021/11/08 12:33:37;;;;;;;6.45;2.28;;;;;;;;;;4587991;27;20024;-58
2021/11/08 12:35:47;;;;;;;6.75;2.08;;;;;;;;;;4590824;27;20019;-58
2021/11/08 12:37:58;;;;;;;5.70;2.07;;;;;;;;;;4584763;27;20812;-58
2021/11/08 12:40:09;;;;;;;5.43;2.30;;;;;;;;;;4589125;27;20077;-58
2021/11/08 12:42:21;;;;;;;5.07;1.95;;;;;;;;;;4584819;27;20031;-58
2021/11/08 12:44:44;;;;;;;3.42;1.60;;;;;;;;;;4589674;27;20069;-58
2021/11/08 12:46:57;;;;;;;4.97;1.80;;;;;;;;;;4587116;27;20121;-58
2021/11/08 12:49:27;;;;;;;4.75;1.88;;;;;;;;;;4583856;27;20020;-58
2021/11/08 12:51:38;;;;;;;6.95;1.98;;;;;;;;;;4588112;27;20040;-58
2021/11/08 12:54:05;;;;;;;6.72;2.17;;;;;;;;;;4588570;27;20592;-57
2021/11/08 12:56:22;;;;;;;5.90;1.83;;;;;;;;;;4586686;27;20036;-58
2021/11/08 12:58:44;;;;;;;5.25;1.80;;;;;;;;;;4587191;27;20023;-57
2021/11/08 13:00:54;;;;;;;5.47;1.90;;;;;;;;;;4585954;27;20099;-57
2021/11/08 13:03:13;;;;;;;6.00;2.10;;;;;;;;;;4588937;27;20106;-57
2021/11/08 13:05:54;;;;;;;4.03;1.75;;;;;;;;;;4586651;27;20042;-58
2021/11/08 13:08:18;;;;;;;4.53;1.75;;;;;;;;;;4584787;27;20164;-58
2021/11/08 13:10:37;;;;;;;5.15;1.63;;;;;;;;;;4590232;27;20039;-58
2021/11/08 13:12:48;;;;;;;6.82;2.17;;;;;;;;;;4588708;27;20070;-55
2021/11/08 13:15:19;;;;;;;5.67;1.97;;;;;;;;;;4587708;27;20107;-55
2021/11/08 13:17:29;;;;;;;4.70;1.90;;;;;;;;;;4589584;27;20028;-55
2021/11/08 13:19:50;;;;;;;4.77;2.20;;;;;;;;;;4571757;27;20016;-55
2021/11/08 13:22:16;;;;;;;6.75;2.25;;;;;;;;;;4584514;27;20510;-57
2021/11/08 13:24:28;;;;;;;5.35;1.98;;;;;;;;;;4585594;27;20036;-57
2021/11/08 13:26:44;;;;;;;5.30;2.05;;;;;;;;;;4572645;27;20032;-57
2021/11/08 13:28:54;;;;;;;4.80;1.95;;;;;;;;;;4567541;27;20032;-57
2021/11/08 13:31:11;;;;;;;5.67;2.03;;;;;;;;;;4586479;27;20117;-57
2021/11/08 13:33:25;;;;;;;6.55;2.25;;;;;;;;;;4590600;27;20046;-56
2021/11/08 13:35:37;;;;;;;5.03;2.10;;;;;;;;;;4590902;27;20027;-57
2021/11/08 13:37:48;;;;;;;4.75;1.92;;;;;;;;;;4597808;27;20024;-57
2021/11/08 13:40:01;;;;;;;5.43;2.10;;;;;;;;;;4589122;27;20374;-57
2021/11/08 13:42:20;;;;;;;6.47;2.40;;;;;;;;;;4586801;27;20110;-57
2021/11/08 13:44:30;;;;;;;5.47;1.67;;;;;;;;;;4589056;27;20030;-56
2021/11/08 13:46:46;;;;;;;4.63;1.70;;;;;;;;;;4587020;27;20035;-58
2021/11/08 13:48:59;;;;;;;4.45;1.70;;;;;;;;;;4588671;27;20583;-58
2021/11/08 13:51:23;;;;;;;5.18;2.28;;;;;;;;;;4587843;27;21393;-58
2021/11/08 13:53:36;;;;;;;5.63;2.00;;;;;;;;;;4590028;27;20099;-58
2021/11/08 13:55:47;;;;;;;7.10;2.17;;;;;;;;;;4587014;27;20043;-58
2021/11/08 13:57:57;;;;;;;;;;;;;;;;;;4589321;27;20064;-58
2021/11/08 14:00:26;;;;;;;6.55;2.10;;;;;;;;;;4587271;27;20332;-58
2021/11/08 14:02:38;;;;;;;7.00;2.20;;;;;;;;;;4587987;27;20031;-58
2021/11/08 14:04:56;;;;;;;5.93;2.28;;;;;;;;;;4596689;27;20024;-58
2021/11/08 14:07:07;;;;;;;6.47;2.20;;;;;;;;;;4588031;27;20023;-58
2021/11/08 14:09:22;;;;;;;5.55;2.17;;;;;;;;;;4574979;27;20026;-58
2021/11/08 14:11:43;;;;;;;5.60;2.45;;;;;;;;;;4571504;27;20133;-59
2021/11/08 14:13:59;;;;;;;;;;;;;;;;;;4590108;27;20024;-58
2021/11/08 14:16:11;;;;;;;4.18;1.73;;;;;;;;;;4586977;27;20008;-58
2021/11/08 14:18:21;;;;;;;7.03;2.50;;;;;;;;;;4586450;27;20774;-56
2021/11/08 14:20:32;;;;;;;5.37;1.93;;;;;;;;;;4588216;27;20028;-56
2021/11/08 14:22:43;;;;;;;3.97;1.73;;;;;;;;;;4586520;27;20039;-56
2021/11/08 14:24:56;;;;;;;;;;;;;;;;;;4590110;27;20028;-56
2021/11/08 14:27:19;;;;;;;4.90;2.20;;;;;;;;;;4588690;27;19908;-56
2021/11/08 14:29:33;;;;;;;5.53;2.40;;;;;;;;;;4586073;27;21210;-58
2021/11/08 14:31:44;;;;;;;5.88;2.30;;;;;;;;;;4589888;27;20864;-56
2021/11/08 14:33:58;;;;;;;3.53;2.03;;;;;;;;;;4588776;27;20031;-56
2021/11/08 14:36:20;;;;;;;6.22;2.35;;;;;;;;;;4587906;27;20652;-57
2021/11/08 14:38:45;;;;;;;5.35;1.90;;;;;;;;;;4586063;27;20100;-57
2021/11/08 14:40:56;;;;;;;5.65;2.30;;;;;;;;;;4592960;27;20109;-56
2021/11/08 14:43:22;;;;;;;4.53;1.90;;;;;;;;;;4587661;27;20803;-56
2021/11/08 14:45:32;;;;;;;6.30;2.08;;;;;;;;;;4603048;27;20077;-56
2021/11/08 14:47:43;;;;;;;4.33;1.80;;;;;;;;;;4588386;27;21250;-57
2021/11/08 14:50:01;;;;;;;5.70;2.00;;;;;;;;;;4587560;27;20032;-56
2021/11/08 14:52:12;;;;;;;6.22;2.38;;;;;;;;;;4573393;27;20086;-57
2021/11/08 14:54:23;;;;;;;4.87;2.00;;;;;;;;;;4586546;27;20034;-56
2021/11/08 14:56:36;;;;;;;5.13;1.90;;;;;;;;;;4587247;27;20024;-56
2021/11/08 14:59:05;;;;;;;5.18;1.70;;;;;;;;;;4586159;27;20573;-57
2021/11/08 15:01:20;;;;;;;5.20;1.98;;;;;;;;;;4590627;27;20047;-56
2021/11/08 15:03:31;;;;;;;4.88;1.90;;;;;;;;;;4586632;27;20230;-57